sensor_id;sensor_type;location;lat;lon;timestamp;temperature;humidity
52979;DHT22;63430;53.186;6.598;2023-03-16T00:01:30;3.70;91.30
52979;DHT22;63430;53.186;6.598;2023-03-16T00:03:35;3.70;91.30
52979;DHT22;63430;53.186;6.598;2023-03-16T00:05:40;3.70;91.30
52979;DHT22;63430;53.186;6.598;2023-03-16T00:07:43;3.70;91.20
52979;DHT22;63430;53.186;6.598;2023-03-16T00:09:45;3.70;91.20
52979;DHT22;63430;53.186;6.598;2023-03-16T00:11:48;3.70;91.20
52979;DHT22;63430;53.186;6.598;2023-03-16T00:13:51;3.70;91.20
52979;DHT22;63430;53.186;6.598;2023-03-16T00:15:54;3.70;91.10
52979;DHT22;63430;53.186;6.598;2023-03-16T00:17:58;3.80;91.20
52979;DHT22;63430;53.186;6.598;2023-03-16T00:20:01;3.80;91.10
52979;DHT22;63430;53.186;6.598;2023-03-16T00:22:10;3.80;91.00
52979;DHT22;63430;53.186;6.598;2023-03-16T00:24:16;3.80;91.10
52979;DHT22;63430;53.186;6.598;2023-03-16T00:26:19;3.80;91.10
52979;DHT22;63430;53.186;6.598;2023-03-16T00:28:22;3.80;91.10
52979;DHT22;63430;53.186;6.598;2023-03-16T00:30:24;4.70;91.10
52979;DHT22;63430;53.186;6.598;2023-03-16T00:32:30;4.50;91.10
52979;DHT22;63430;53.186;6.598;2023-03-16T00:34:34;3.80;90.80
52979;DHT22;63430;53.186;6.598;2023-03-16T00:36:37;3.90;90.80
52979;DHT22;63430;53.186;6.598;2023-03-16T00:38:44;4.40;90.90
52979;DHT22;63430;53.186;6.598;2023-03-16T00:40:47;4.00;90.80
52979;DHT22;63430;53.186;6.598;2023-03-16T00:42:52;3.80;90.90
52979;DHT22;63430;53.186;6.598;2023-03-16T00:44:57;3.90;90.70
52979;DHT22;63430;53.186;6.598;2023-03-16T00:47:00;3.90;90.60
52979;DHT22;63430;53.186;6.598;2023-03-16T00:49:02;3.90;90.60
52979;DHT22;63430;53.186;6.598;2023-03-16T00:51:16;3.90;90.60
52979;DHT22;63430;53.186;6.598;2023-03-16T00:53:19;3.90;90.50
52979;DHT22;63430;53.186;6.598;2023-03-16T00:55:26;3.90;90.60
52979;DHT22;63430;53.186;6.598;2023-03-16T00:57:29;3.90;90.70
52979;DHT22;63430;53.186;6.598;2023-03-16T00:59:33;3.90;90.40
52979;DHT22;63430;53.186;6.598;2023-03-16T01:01:38;3.90;90.50
52979;DHT22;63430;53.186;6.598;2023-03-16T01:03:44;3.90;90.50
52979;DHT22;63430;53.186;6.598;2023-03-16T01:05:47;3.90;90.60
52979;DHT22;63430;53.186;6.598;2023-03-16T01:07:50;3.90;90.60
52979;DHT22;63430;53.186;6.598;2023-03-16T01:09:54;3.90;90.60
52979;DHT22;63430;53.186;6.598;2023-03-16T01:11:59;3.90;90.50
52979;DHT22;63430;53.186;6.598;2023-03-16T01:14:11;3.90;90.60
52979;DHT22;63430;53.186;6.598;2023-03-16T01:16:15;3.90;90.50
52979;DHT22;63430;53.186;6.598;2023-03-16T01:18:23;3.90;90.60
52979;DHT22;63430;53.186;6.598;2023-03-16T01:20:26;4.00;90.60
52979;DHT22;63430;53.186;6.598;2023-03-16T01:22:29;4.00;90.60
52979;DHT22;63430;53.186;6.598;2023-03-16T01:24:37;4.00;90.60
52979;DHT22;63430;53.186;6.598;2023-03-16T01:26:54;4.00;90.60
52979;DHT22;63430;53.186;6.598;2023-03-16T01:29:03;4.20;90.50
52979;DHT22;63430;53.186;6.598;2023-03-16T01:31:08;4.00;90.50
52979;DHT22;63430;53.186;6.598;2023-03-16T01:33:11;4.00;90.50
52979;DHT22;63430;53.186;6.598;2023-03-16T01:35:14;4.00;90.60
52979;DHT22;63430;53.186;6.598;2023-03-16T01:37:17;4.00;90.60
52979;DHT22;63430;53.186;6.598;2023-03-16T01:39:33;4.00;90.80
52979;DHT22;63430;53.186;6.598;2023-03-16T01:41:36;4.00;90.90
52979;DHT22;63430;53.186;6.598;2023-03-16T01:43:39;3.90;91.00
52979;DHT22;63430;53.186;6.598;2023-03-16T01:46:05;4.00;91.00
52979;DHT22;63430;53.186;6.598;2023-03-16T01:48:15;4.50;91.30
52979;DHT22;63430;53.186;6.598;2023-03-16T01:50:18;4.00;91.30
52979;DHT22;63430;53.186;6.598;2023-03-16T01:52:24;4.00;91.20
52979;DHT22;63430;53.186;6.598;2023-03-16T01:54:31;4.00;91.30
52979;DHT22;63430;53.186;6.598;2023-03-16T01:56:38;4.00;91.30
52979;DHT22;63430;53.186;6.598;2023-03-16T01:58:43;3.90;91.40
52979;DHT22;63430;53.186;6.598;2023-03-16T02:00:46;5.20;91.80
52979;DHT22;63430;53.186;6.598;2023-03-16T02:03:01;4.00;91.50
52979;DHT22;63430;53.186;6.598;2023-03-16T02:05:18;4.00;91.50
52979;DHT22;63430;53.186;6.598;2023-03-16T02:07:24;4.00;91.60
52979;DHT22;63430;53.186;6.598;2023-03-16T02:09:29;4.00;91.60
52979;DHT22;63430;53.186;6.598;2023-03-16T02:11:32;4.00;91.60
52979;DHT22;63430;53.186;6.598;2023-03-16T02:13:41;4.00;91.60
52979;DHT22;63430;53.186;6.598;2023-03-16T02:15:45;4.00;91.60
52979;DHT22;63430;53.186;6.598;2023-03-16T02:17:48;4.10;91.50
52979;DHT22;63430;53.186;6.598;2023-03-16T02:20:05;4.10;91.50
52979;DHT22;63430;53.186;6.598;2023-03-16T02:22:11;4.10;91.50
52979;DHT22;63430;53.186;6.598;2023-03-16T02:24:15;4.10;91.50
52979;DHT22;63430;53.186;6.598;2023-03-16T02:26:24;4.10;91.60
52979;DHT22;63430;53.186;6.598;2023-03-16T02:28:34;4.10;91.50
52979;DHT22;63430;53.186;6.598;2023-03-16T02:30:40;4.10;91.50
52979;DHT22;63430;53.186;6.598;2023-03-16T02:32:43;5.10;91.70
52979;DHT22;63430;53.186;6.598;2023-03-16T02:34:48;4.10;91.50
52979;DHT22;63430;53.186;6.598;2023-03-16T02:36:51;4.10;91.50
52979;DHT22;63430;53.186;6.598;2023-03-16T02:38:58;4.20;91.40
52979;DHT22;63430;53.186;6.598;2023-03-16T02:41:09;4.10;91.30
52979;DHT22;63430;53.186;6.598;2023-03-16T02:43:19;4.20;91.40
52979;DHT22;63430;53.186;6.598;2023-03-16T02:45:42;4.20;91.30
52979;DHT22;63430;53.186;6.598;2023-03-16T02:47:48;4.60;91.30
52979;DHT22;63430;53.186;6.598;2023-03-16T02:49:54;4.20;91.10
52979;DHT22;63430;53.186;6.598;2023-03-16T02:51:57;4.20;91.20
52979;DHT22;63430;53.186;6.598;2023-03-16T02:53:59;4.20;90.90
52979;DHT22;63430;53.186;6.598;2023-03-16T02:56:06;4.30;91.00
52979;DHT22;63430;53.186;6.598;2023-03-16T02:58:16;4.30;90.80
52979;DHT22;63430;53.186;6.598;2023-03-16T03:00:21;4.30;90.80
52979;DHT22;63430;53.186;6.598;2023-03-16T03:02:33;4.30;90.80
52979;DHT22;63430;53.186;6.598;2023-03-16T03:04:35;4.30;90.80
52979;DHT22;63430;53.186;6.598;2023-03-16T03:06:40;4.30;90.80
52979;DHT22;63430;53.186;6.598;2023-03-16T03:08:43;4.30;90.80
52979;DHT22;63430;53.186;6.598;2023-03-16T03:10:46;4.30;90.60
52979;DHT22;63430;53.186;6.598;2023-03-16T03:12:49;4.30;90.60
52979;DHT22;63430;53.186;6.598;2023-03-16T03:14:53;4.30;90.60
52979;DHT22;63430;53.186;6.598;2023-03-16T03:16:59;4.30;90.60
52979;DHT22;63430;53.186;6.598;2023-03-16T03:19:04;4.40;90.60
52979;DHT22;63430;53.186;6.598;2023-03-16T03:21:10;4.40;90.60
52979;DHT22;63430;53.186;6.598;2023-03-16T03:23:15;5.00;90.70
52979;DHT22;63430;53.186;6.598;2023-03-16T03:25:19;4.40;90.60
52979;DHT22;63430;53.186;6.598;2023-03-16T03:27:21;4.40;90.70
52979;DHT22;63430;53.186;6.598;2023-03-16T03:29:25;4.40;90.70
52979;DHT22;63430;53.186;6.598;2023-03-16T03:31:35;4.50;90.80
52979;DHT22;63430;53.186;6.598;2023-03-16T03:33:38;4.40;90.70
52979;DHT22;63430;53.186;6.598;2023-03-16T03:35:44;4.40;90.60
52979;DHT22;63430;53.186;6.598;2023-03-16T03:37:47;4.40;90.70
52979;DHT22;63430;53.186;6.598;2023-03-16T03:39:51;4.40;90.90
52979;DHT22;63430;53.186;6.598;2023-03-16T03:41:56;4.40;90.80
52979;DHT22;63430;53.186;6.598;2023-03-16T03:43:59;4.50;90.80
52979;DHT22;63430;53.186;6.598;2023-03-16T03:46:03;4.40;90.70
52979;DHT22;63430;53.186;6.598;2023-03-16T03:48:09;4.40;90.80
52979;DHT22;63430;53.186;6.598;2023-03-16T03:50:12;4.30;90.70
52979;DHT22;63430;53.186;6.598;2023-03-16T03:52:38;5.20;91.10
52979;DHT22;63430;53.186;6.598;2023-03-16T03:54:40;4.40;91.00
52979;DHT22;63430;53.186;6.598;2023-03-16T03:56:57;4.90;91.00
52979;DHT22;63430;53.186;6.598;2023-03-16T03:59:02;4.30;91.00
52979;DHT22;63430;53.186;6.598;2023-03-16T04:01:28;4.30;91.10
52979;DHT22;63430;53.186;6.598;2023-03-16T04:03:30;4.30;91.00
52979;DHT22;63430;53.186;6.598;2023-03-16T04:05:33;4.30;91.10
52979;DHT22;63430;53.186;6.598;2023-03-16T04:07:38;4.30;91.20
52979;DHT22;63430;53.186;6.598;2023-03-16T04:09:44;4.30;91.20
52979;DHT22;63430;53.186;6.598;2023-03-16T04:12:05;4.30;91.30
52979;DHT22;63430;53.186;6.598;2023-03-16T04:14:08;4.30;91.40
52979;DHT22;63430;53.186;6.598;2023-03-16T04:16:13;4.20;91.50
52979;DHT22;63430;53.186;6.598;2023-03-16T04:18:19;4.20;91.60
52979;DHT22;63430;53.186;6.598;2023-03-16T04:20:22;4.20;91.50
52979;DHT22;63430;53.186;6.598;2023-03-16T04:22:25;4.20;91.60
52979;DHT22;63430;53.186;6.598;2023-03-16T04:24:31;4.30;91.60
52979;DHT22;63430;53.186;6.598;2023-03-16T04:26:35;4.20;91.60
52979;DHT22;63430;53.186;6.598;2023-03-16T04:28:39;4.20;91.60
52979;DHT22;63430;53.186;6.598;2023-03-16T04:30:44;4.20;91.70
52979;DHT22;63430;53.186;6.598;2023-03-16T04:32:54;4.20;91.70
52979;DHT22;63430;53.186;6.598;2023-03-16T04:34:58;4.20;91.70
52979;DHT22;63430;53.186;6.598;2023-03-16T04:37:20;4.20;92.00
52979;DHT22;63430;53.186;6.598;2023-03-16T04:39:24;4.20;91.90
52979;DHT22;63430;53.186;6.598;2023-03-16T04:41:31;4.20;91.90
52979;DHT22;63430;53.186;6.598;2023-03-16T04:43:56;4.20;92.00
52979;DHT22;63430;53.186;6.598;2023-03-16T04:45:59;4.20;91.90
52979;DHT22;63430;53.186;6.598;2023-03-16T04:48:05;4.20;91.90
52979;DHT22;63430;53.186;6.598;2023-03-16T04:50:09;4.20;92.00
52979;DHT22;63430;53.186;6.598;2023-03-16T04:52:12;4.20;92.20
52979;DHT22;63430;53.186;6.598;2023-03-16T04:54:15;4.20;92.00
52979;DHT22;63430;53.186;6.598;2023-03-16T04:56:18;4.20;92.10
52979;DHT22;63430;53.186;6.598;2023-03-16T04:58:30;4.30;92.20
52979;DHT22;63430;53.186;6.598;2023-03-16T05:00:39;4.20;92.20
52979;DHT22;63430;53.186;6.598;2023-03-16T05:02:56;4.30;92.10
52979;DHT22;63430;53.186;6.598;2023-03-16T05:04:59;4.20;92.30
52979;DHT22;63430;53.186;6.598;2023-03-16T05:07:02;4.30;92.30
52979;DHT22;63430;53.186;6.598;2023-03-16T05:09:09;4.30;92.30
52979;DHT22;63430;53.186;6.598;2023-03-16T05:11:12;4.30;92.40
52979;DHT22;63430;53.186;6.598;2023-03-16T05:13:24;4.30;92.40
52979;DHT22;63430;53.186;6.598;2023-03-16T05:15:31;4.30;92.50
52979;DHT22;63430;53.186;6.598;2023-03-16T05:17:43;4.30;92.50
52979;DHT22;63430;53.186;6.598;2023-03-16T05:19:47;4.30;92.70
52979;DHT22;63430;53.186;6.598;2023-03-16T05:21:50;4.30;92.70
52979;DHT22;63430;53.186;6.598;2023-03-16T05:23:53;4.30;92.70
52979;DHT22;63430;53.186;6.598;2023-03-16T05:26:03;4.30;92.90
52979;DHT22;63430;53.186;6.598;2023-03-16T05:28:18;4.30;92.90
52979;DHT22;63430;53.186;6.598;2023-03-16T05:30:32;4.30;92.90
52979;DHT22;63430;53.186;6.598;2023-03-16T05:32:38;4.30;92.90
52979;DHT22;63430;53.186;6.598;2023-03-16T05:34:43;4.30;93.10
52979;DHT22;63430;53.186;6.598;2023-03-16T05:36:49;4.30;93.20
52979;DHT22;63430;53.186;6.598;2023-03-16T05:38:59;4.20;93.20
52979;DHT22;63430;53.186;6.598;2023-03-16T05:41:09;4.30;93.30
52979;DHT22;63430;53.186;6.598;2023-03-16T05:43:20;4.20;93.40
52979;DHT22;63430;53.186;6.598;2023-03-16T05:45:26;4.30;93.50
52979;DHT22;63430;53.186;6.598;2023-03-16T05:47:52;4.30;93.70
52979;DHT22;63430;53.186;6.598;2023-03-16T05:49:55;4.30;93.80
52979;DHT22;63430;53.186;6.598;2023-03-16T05:52:05;4.30;93.90
52979;DHT22;63430;53.186;6.598;2023-03-16T05:54:09;4.30;94.00
52979;DHT22;63430;53.186;6.598;2023-03-16T05:56:18;4.30;94.20
52979;DHT22;63430;53.186;6.598;2023-03-16T05:58:21;4.80;94.30
52979;DHT22;63430;53.186;6.598;2023-03-16T06:00:26;4.30;94.20
52979;DHT22;63430;53.186;6.598;2023-03-16T06:02:44;4.30;94.40
52979;DHT22;63430;53.186;6.598;2023-03-16T06:04:53;3.70;94.50
52979;DHT22;63430;53.186;6.598;2023-03-16T06:06:56;4.30;94.60
52979;DHT22;63430;53.186;6.598;2023-03-16T06:09:01;4.30;94.80
52979;DHT22;63430;53.186;6.598;2023-03-16T06:11:07;4.30;95.10
52979;DHT22;63430;53.186;6.598;2023-03-16T06:13:10;4.30;94.90
52979;DHT22;63430;53.186;6.598;2023-03-16T06:15:13;4.30;95.10
52979;DHT22;63430;53.186;6.598;2023-03-16T06:17:16;4.40;95.30
52979;DHT22;63430;53.186;6.598;2023-03-16T06:19:18;4.30;95.50
52979;DHT22;63430;53.186;6.598;2023-03-16T06:21:28;4.40;95.70
52979;DHT22;63430;53.186;6.598;2023-03-16T06:23:37;4.40;95.80
52979;DHT22;63430;53.186;6.598;2023-03-16T06:25:41;5.10;95.90
52979;DHT22;63430;53.186;6.598;2023-03-16T06:27:45;4.40;96.00
52979;DHT22;63430;53.186;6.598;2023-03-16T06:29:51;4.40;96.20
52979;DHT22;63430;53.186;6.598;2023-03-16T06:31:53;4.40;96.20
52979;DHT22;63430;53.186;6.598;2023-03-16T06:33:57;4.40;96.50
52979;DHT22;63430;53.186;6.598;2023-03-16T06:36:00;4.40;96.50
52979;DHT22;63430;53.186;6.598;2023-03-16T06:38:19;4.50;96.70
52979;DHT22;63430;53.186;6.598;2023-03-16T06:40:30;4.70;97.10
52979;DHT22;63430;53.186;6.598;2023-03-16T06:42:32;4.50;96.70
52979;DHT22;63430;53.186;6.598;2023-03-16T06:44:35;4.50;96.70
52979;DHT22;63430;53.186;6.598;2023-03-16T06:46:43;4.50;96.80
52979;DHT22;63430;53.186;6.598;2023-03-16T06:48:45;4.50;96.70
52979;DHT22;63430;53.186;6.598;2023-03-16T06:50:49;4.50;97.30
52979;DHT22;63430;53.186;6.598;2023-03-16T06:52:57;4.50;96.90
52979;DHT22;63430;53.186;6.598;2023-03-16T06:55:03;4.50;96.80
52979;DHT22;63430;53.186;6.598;2023-03-16T06:57:10;4.60;96.90
52979;DHT22;63430;53.186;6.598;2023-03-16T06:59:12;4.60;96.90
52979;DHT22;63430;53.186;6.598;2023-03-16T07:01:16;4.60;97.30
52979;DHT22;63430;53.186;6.598;2023-03-16T07:03:18;4.60;96.90
52979;DHT22;63430;53.186;6.598;2023-03-16T07:05:26;4.80;97.00
52979;DHT22;63430;53.186;6.598;2023-03-16T07:07:29;4.60;97.30
52979;DHT22;63430;53.186;6.598;2023-03-16T07:09:32;4.70;97.00
52979;DHT22;63430;53.186;6.598;2023-03-16T07:11:41;4.70;97.20
52979;DHT22;63430;53.186;6.598;2023-03-16T07:13:46;4.70;97.10
52979;DHT22;63430;53.186;6.598;2023-03-16T07:15:51;4.80;97.30
52979;DHT22;63430;53.186;6.598;2023-03-16T07:17:55;4.70;97.10
52979;DHT22;63430;53.186;6.598;2023-03-16T07:19:58;4.80;97.00
52979;DHT22;63430;53.186;6.598;2023-03-16T07:22:02;4.80;96.90
52979;DHT22;63430;53.186;6.598;2023-03-16T07:24:11;4.80;97.10
52979;DHT22;63430;53.186;6.598;2023-03-16T07:26:15;4.90;96.90
52979;DHT22;63430;53.186;6.598;2023-03-16T07:28:27;4.90;97.10
52979;DHT22;63430;53.186;6.598;2023-03-16T07:30:33;4.90;97.10
52979;DHT22;63430;53.186;6.598;2023-03-16T07:32:40;5.10;96.90
52979;DHT22;63430;53.186;6.598;2023-03-16T07:34:47;4.90;96.80
52979;DHT22;63430;53.186;6.598;2023-03-16T07:36:50;5.00;96.80
52979;DHT22;63430;53.186;6.598;2023-03-16T07:38:55;5.00;96.70
52979;DHT22;63430;53.186;6.598;2023-03-16T07:40:58;5.00;96.70
52979;DHT22;63430;53.186;6.598;2023-03-16T07:43:02;5.00;96.80
52979;DHT22;63430;53.186;6.598;2023-03-16T07:45:12;5.00;97.00
52979;DHT22;63430;53.186;6.598;2023-03-16T07:47:17;5.60;97.10
52979;DHT22;63430;53.186;6.598;2023-03-16T07:49:20;5.10;97.00
52979;DHT22;63430;53.186;6.598;2023-03-16T07:51:23;5.80;97.30
52979;DHT22;63430;53.186;6.598;2023-03-16T07:53:27;5.10;97.60
52979;DHT22;63430;53.186;6.598;2023-03-16T07:55:46;5.10;97.30
52979;DHT22;63430;53.186;6.598;2023-03-16T07:57:48;5.20;97.60
52979;DHT22;63430;53.186;6.598;2023-03-16T07:59:58;5.20;97.60
52979;DHT22;63430;53.186;6.598;2023-03-16T08:02:04;5.20;97.50
52979;DHT22;63430;53.186;6.598;2023-03-16T08:04:08;5.30;97.70
52979;DHT22;63430;53.186;6.598;2023-03-16T08:06:11;5.30;97.70
52979;DHT22;63430;53.186;6.598;2023-03-16T08:08:16;5.40;97.70
52979;DHT22;63430;53.186;6.598;2023-03-16T08:10:19;5.40;97.60
52979;DHT22;63430;53.186;6.598;2023-03-16T08:12:33;5.50;97.50
52979;DHT22;63430;53.186;6.598;2023-03-16T08:14:36;5.50;97.60
52979;DHT22;63430;53.186;6.598;2023-03-16T08:16:47;5.50;97.60
52979;DHT22;63430;53.186;6.598;2023-03-16T08:18:55;5.50;97.50
52979;DHT22;63430;53.186;6.598;2023-03-16T08:20:59;5.60;97.80
52979;DHT22;63430;53.186;6.598;2023-03-16T08:23:01;5.60;97.80
52979;DHT22;63430;53.186;6.598;2023-03-16T08:25:11;5.50;98.00
52979;DHT22;63430;53.186;6.598;2023-03-16T08:27:25;5.50;98.40
52979;DHT22;63430;53.186;6.598;2023-03-16T08:29:34;5.70;99.00
52979;DHT22;63430;53.186;6.598;2023-03-16T08:31:39;5.50;99.80
52979;DHT22;63430;53.186;6.598;2023-03-16T08:33:55;5.50;99.50
52979;DHT22;63430;53.186;6.598;2023-03-16T08:36:05;5.50;99.90
52979;DHT22;63430;53.186;6.598;2023-03-16T08:38:08;5.50;99.90
52979;DHT22;63430;53.186;6.598;2023-03-16T08:40:12;5.50;99.90
52979;DHT22;63430;53.186;6.598;2023-03-16T08:42:22;5.80;99.90
52979;DHT22;63430;53.186;6.598;2023-03-16T08:44:30;5.50;99.90
52979;DHT22;63430;53.186;6.598;2023-03-16T08:46:36;5.50;99.90
52979;DHT22;63430;53.186;6.598;2023-03-16T08:48:39;6.70;99.90
52979;DHT22;63430;53.186;6.598;2023-03-16T08:50:46;5.50;99.90
52979;DHT22;63430;53.186;6.598;2023-03-16T08:52:48;5.50;99.90
52979;DHT22;63430;53.186;6.598;2023-03-16T08:54:52;5.50;99.90
52979;DHT22;63430;53.186;6.598;2023-03-16T08:57:04;5.50;99.90
52979;DHT22;63430;53.186;6.598;2023-03-16T08:59:08;5.50;99.90
52979;DHT22;63430;53.186;6.598;2023-03-16T09:01:30;5.50;99.90
52979;DHT22;63430;53.186;6.598;2023-03-16T09:03:34;5.50;99.90
52979;DHT22;63430;53.186;6.598;2023-03-16T09:05:37;5.60;99.90
52979;DHT22;63430;53.186;6.598;2023-03-16T09:07:42;6.10;99.90
52979;DHT22;63430;53.186;6.598;2023-03-16T09:09:45;5.60;99.90
52979;DHT22;63430;53.186;6.598;2023-03-16T09:11:47;5.60;99.90
52979;DHT22;63430;53.186;6.598;2023-03-16T09:13:51;5.60;99.90
52979;DHT22;63430;53.186;6.598;2023-03-16T09:15:54;5.60;99.90
52979;DHT22;63430;53.186;6.598;2023-03-16T09:17:58;5.60;99.90
52979;DHT22;63430;53.186;6.598;2023-03-16T09:20:02;5.60;99.90
52979;DHT22;63430;53.186;6.598;2023-03-16T09:22:23;5.60;99.90
52979;DHT22;63430;53.186;6.598;2023-03-16T09:24:29;5.60;99.90
52979;DHT22;63430;53.186;6.598;2023-03-16T09:26:31;5.60;99.90
52979;DHT22;63430;53.186;6.598;2023-03-16T09:28:35;5.60;99.90
52979;DHT22;63430;53.186;6.598;2023-03-16T09:30:40;5.60;99.90
52979;DHT22;63430;53.186;6.598;2023-03-16T09:32:43;5.90;99.90
52979;DHT22;63430;53.186;6.598;2023-03-16T09:34:49;5.60;99.90
52979;DHT22;63430;53.186;6.598;2023-03-16T09:36:51;5.60;99.90
52979;DHT22;63430;53.186;6.598;2023-03-16T09:38:54;5.60;99.90
52979;DHT22;63430;53.186;6.598;2023-03-16T09:41:02;5.70;99.90
52979;DHT22;63430;53.186;6.598;2023-03-16T09:43:26;5.70;99.90
52979;DHT22;63430;53.186;6.598;2023-03-16T09:45:36;5.70;99.90
52979;DHT22;63430;53.186;6.598;2023-03-16T09:47:44;6.10;99.90
52979;DHT22;63430;53.186;6.598;2023-03-16T09:49:50;6.30;99.90
52979;DHT22;63430;53.186;6.598;2023-03-16T09:51:59;6.00;99.90
52979;DHT22;63430;53.186;6.598;2023-03-16T09:54:15;6.10;99.90
52979;DHT22;63430;53.186;6.598;2023-03-16T09:56:28;6.90;99.90
52979;DHT22;63430;53.186;6.598;2023-03-16T09:58:31;6.30;99.90
52979;DHT22;63430;53.186;6.598;2023-03-16T10:00:38;6.30;99.90
52979;DHT22;63430;53.186;6.598;2023-03-16T10:02:55;6.40;99.90
52979;DHT22;63430;53.186;6.598;2023-03-16T10:05:07;6.40;99.90
52979;DHT22;63430;53.186;6.598;2023-03-16T10:07:19;6.30;99.90
52979;DHT22;63430;53.186;6.598;2023-03-16T10:09:31;6.30;99.90
52979;DHT22;63430;53.186;6.598;2023-03-16T10:11:39;6.80;99.90
52979;DHT22;63430;53.186;6.598;2023-03-16T10:13:46;6.30;99.90
52979;DHT22;63430;53.186;6.598;2023-03-16T10:15:52;6.30;99.90
52979;DHT22;63430;53.186;6.598;2023-03-16T10:17:58;6.30;99.90
52979;DHT22;63430;53.186;6.598;2023-03-16T10:20:04;6.50;99.90
52979;DHT22;63430;53.186;6.598;2023-03-16T10:22:17;6.30;99.90
52979;DHT22;63430;53.186;6.598;2023-03-16T10:24:32;6.30;99.90
52979;DHT22;63430;53.186;6.598;2023-03-16T10:26:40;6.70;99.90
52979;DHT22;63430;53.186;6.598;2023-03-16T10:28:45;6.40;99.90
52979;DHT22;63430;53.186;6.598;2023-03-16T10:30:51;6.40;99.90
52979;DHT22;63430;53.186;6.598;2023-03-16T10:32:55;6.40;99.90
52979;DHT22;63430;53.186;6.598;2023-03-16T10:35:02;6.40;99.90
52979;DHT22;63430;53.186;6.598;2023-03-16T10:37:12;6.40;99.90
52979;DHT22;63430;53.186;6.598;2023-03-16T10:39:23;6.40;99.90
52979;DHT22;63430;53.186;6.598;2023-03-16T10:41:28;6.30;99.90
52979;DHT22;63430;53.186;6.598;2023-03-16T10:43:34;6.30;99.90
52979;DHT22;63430;53.186;6.598;2023-03-16T10:45:38;6.30;99.90
52979;DHT22;63430;53.186;6.598;2023-03-16T10:47:40;5.50;99.90
52979;DHT22;63430;53.186;6.598;2023-03-16T10:49:44;6.30;99.90
52979;DHT22;63430;53.186;6.598;2023-03-16T10:51:54;6.30;99.90
52979;DHT22;63430;53.186;6.598;2023-03-16T10:54:12;6.40;99.90
52979;DHT22;63430;53.186;6.598;2023-03-16T10:56:22;6.40;99.90
52979;DHT22;63430;53.186;6.598;2023-03-16T10:58:30;6.40;99.90
52979;DHT22;63430;53.186;6.598;2023-03-16T11:00:40;6.40;99.90
52979;DHT22;63430;53.186;6.598;2023-03-16T11:02:43;6.50;99.90
52979;DHT22;63430;53.186;6.598;2023-03-16T11:04:46;6.50;99.90
52979;DHT22;63430;53.186;6.598;2023-03-16T11:06:52;7.50;99.90
52979;DHT22;63430;53.186;6.598;2023-03-16T11:09:02;6.50;99.90
52979;DHT22;63430;53.186;6.598;2023-03-16T11:11:09;6.50;99.90
52979;DHT22;63430;53.186;6.598;2023-03-16T11:13:17;6.50;99.90
52979;DHT22;63430;53.186;6.598;2023-03-16T11:15:21;6.50;99.90
52979;DHT22;63430;53.186;6.598;2023-03-16T11:17:33;6.50;99.90
52979;DHT22;63430;53.186;6.598;2023-03-16T11:19:43;6.50;99.90
52979;DHT22;63430;53.186;6.598;2023-03-16T11:21:52;6.70;99.90
52979;DHT22;63430;53.186;6.598;2023-03-16T11:23:58;7.00;99.90
52979;DHT22;63430;53.186;6.598;2023-03-16T11:26:03;6.60;99.90
52979;DHT22;63430;53.186;6.598;2023-03-16T11:28:14;6.60;99.90
52979;DHT22;63430;53.186;6.598;2023-03-16T11:30:21;6.70;99.90
52979;DHT22;63430;53.186;6.598;2023-03-16T11:32:32;7.10;99.90
52979;DHT22;63430;53.186;6.598;2023-03-16T11:34:35;6.80;99.90
52979;DHT22;63430;53.186;6.598;2023-03-16T11:36:44;6.90;99.90
52979;DHT22;63430;53.186;6.598;2023-03-16T11:38:56;7.00;99.90
52979;DHT22;63430;53.186;6.598;2023-03-16T11:41:03;7.00;99.90
52979;DHT22;63430;53.186;6.598;2023-03-16T11:43:19;7.00;99.90
52979;DHT22;63430;53.186;6.598;2023-03-16T11:45:30;7.10;99.90
52979;DHT22;63430;53.186;6.598;2023-03-16T11:48:08;7.10;99.90
52979;DHT22;63430;53.186;6.598;2023-03-16T11:50:25;7.10;99.90
52979;DHT22;63430;53.186;6.598;2023-03-16T11:52:47;7.20;99.90
52979;DHT22;63430;53.186;6.598;2023-03-16T11:55:00;7.20;99.90
52979;DHT22;63430;53.186;6.598;2023-03-16T11:57:18;7.30;99.90
52979;DHT22;63430;53.186;6.598;2023-03-16T11:59:42;7.30;99.90
52979;DHT22;63430;53.186;6.598;2023-03-16T12:02:19;7.40;99.90
52979;DHT22;63430;53.186;6.598;2023-03-16T12:04:47;7.40;99.90
52979;DHT22;63430;53.186;6.598;2023-03-16T12:07:11;7.40;99.90
52979;DHT22;63430;53.186;6.598;2023-03-16T12:11:57;7.50;99.90
52979;DHT22;63430;53.186;6.598;2023-03-16T12:14:13;7.60;99.90
52979;DHT22;63430;53.186;6.598;2023-03-16T12:16:22;7.80;99.90
52979;DHT22;63430;53.186;6.598;2023-03-16T12:18:42;8.00;99.90
52979;DHT22;63430;53.186;6.598;2023-03-16T12:20:53;7.80;99.90
52979;DHT22;63430;53.186;6.598;2023-03-16T12:22:59;8.00;99.90
52979;DHT22;63430;53.186;6.598;2023-03-16T12:25:15;8.00;99.90
52979;DHT22;63430;53.186;6.598;2023-03-16T12:27:32;8.10;99.90
52979;DHT22;63430;53.186;6.598;2023-03-16T12:29:52;8.20;99.90
52979;DHT22;63430;53.186;6.598;2023-03-16T12:32:04;8.20;99.90
52979;DHT22;63430;53.186;6.598;2023-03-16T12:34:16;8.30;99.90
52979;DHT22;63430;53.186;6.598;2023-03-16T12:39:06;8.40;99.90
52979;DHT22;63430;53.186;6.598;2023-03-16T12:41:18;8.50;99.90
52979;DHT22;63430;53.186;6.598;2023-03-16T12:43:35;8.60;99.90
52979;DHT22;63430;53.186;6.598;2023-03-16T12:45:42;8.10;99.90
52979;DHT22;63430;53.186;6.598;2023-03-16T12:47:56;8.80;99.90
52979;DHT22;63430;53.186;6.598;2023-03-16T12:50:06;8.80;99.90
52979;DHT22;63430;53.186;6.598;2023-03-16T12:52:11;8.90;99.90
52979;DHT22;63430;53.186;6.598;2023-03-16T12:54:21;8.90;99.90
52979;DHT22;63430;53.186;6.598;2023-03-16T12:56:27;8.90;99.90
52979;DHT22;63430;53.186;6.598;2023-03-16T12:58:49;8.90;99.90
52979;DHT22;63430;53.186;6.598;2023-03-16T13:00:56;8.90;99.90
52979;DHT22;63430;53.186;6.598;2023-03-16T13:02:59;9.00;99.90
52979;DHT22;63430;53.186;6.598;2023-03-16T13:05:08;8.90;99.90
52979;DHT22;63430;53.186;6.598;2023-03-16T13:07:17;8.80;99.90
52979;DHT22;63430;53.186;6.598;2023-03-16T13:09:26;8.80;99.90
52979;DHT22;63430;53.186;6.598;2023-03-16T13:11:40;8.80;99.90
52979;DHT22;63430;53.186;6.598;2023-03-16T13:13:49;8.80;99.90
52979;DHT22;63430;53.186;6.598;2023-03-16T13:16:02;8.80;99.90
52979;DHT22;63430;53.186;6.598;2023-03-16T13:18:21;8.80;99.90
52979;DHT22;63430;53.186;6.598;2023-03-16T13:20:28;8.80;99.90
52979;DHT22;63430;53.186;6.598;2023-03-16T13:22:44;8.80;99.90
52979;DHT22;63430;53.186;6.598;2023-03-16T13:25:13;8.80;99.90
52979;DHT22;63430;53.186;6.598;2023-03-16T13:27:21;8.80;99.90
52979;DHT22;63430;53.186;6.598;2023-03-16T13:29:27;9.40;99.90
52979;DHT22;63430;53.186;6.598;2023-03-16T13:31:31;8.90;99.90
52979;DHT22;63430;53.186;6.598;2023-03-16T13:33:38;8.90;99.90
52979;DHT22;63430;53.186;6.598;2023-03-16T13:35:42;8.90;99.90
52979;DHT22;63430;53.186;6.598;2023-03-16T13:38:03;9.00;99.90
52979;DHT22;63430;53.186;6.598;2023-03-16T13:40:22;9.10;99.90
52979;DHT22;63430;53.186;6.598;2023-03-16T13:42:28;9.20;99.90
52979;DHT22;63430;53.186;6.598;2023-03-16T13:44:44;9.30;99.90